sensor_id;sensor_type;location;lat;lon;timestamp;P1;durP1;ratioP1;P2;durP2;ratioP2
45208;SDS011;30951;43.994;26.260;2023-05-10T00:01:04;21.65;;;14.30;;
45208;SDS011;30951;43.994;26.260;2023-05-10T00:03:29;19.60;;;10.68;;
45208;SDS011;30951;43.994;26.260;2023-05-10T00:05:55;17.02;;;12.05;;
45208;SDS011;30951;43.994;26.260;2023-05-10T00:08:20;13.88;;;10.60;;
45208;SDS011;30951;43.994;26.260;2023-05-10T00:10:46;14.90;;;10.32;;
45208;SDS011;30951;43.994;26.260;2023-05-10T00:13:11;14.45;;;10.15;;
45208;SDS011;30951;43.994;26.260;2023-05-10T00:15:37;13.80;;;9.43;;
45208;SDS011;30951;43.994;26.260;2023-05-10T00:18:02;15.25;;;10.30;;
45208;SDS011;30951;43.994;26.260;2023-05-10T00:20:28;20.55;;;12.40;;
45208;SDS011;30951;43.994;26.260;2023-05-10T00:22:53;13.93;;;10.18;;
45208;SDS011;30951;43.994;26.260;2023-05-10T00:25:19;13.18;;;10.05;;
45208;SDS011;30951;43.994;26.260;2023-05-10T00:27:46;15.55;;;10.80;;
45208;SDS011;30951;43.994;26.260;2023-05-10T00:30:12;13.85;;;9.65;;
45208;SDS011;30951;43.994;26.260;2023-05-10T00:32:38;15.27;;;9.85;;
45208;SDS011;30951;43.994;26.260;2023-05-10T00:35:03;15.65;;;9.95;;
45208;SDS011;30951;43.994;26.260;2023-05-10T00:37:29;16.45;;;10.48;;
45208;SDS011;30951;43.994;26.260;2023-05-10T00:39:55;18.35;;;11.77;;
45208;SDS011;30951;43.994;26.260;2023-05-10T00:42:20;19.70;;;11.68;;
45208;SDS011;30951;43.994;26.260;2023-05-10T00:44:46;20.75;;;11.75;;
45208;SDS011;30951;43.994;26.260;2023-05-10T00:47:11;14.90;;;11.05;;
45208;SDS011;30951;43.994;26.260;2023-05-10T00:49:37;18.35;;;10.90;;
45208;SDS011;30951;43.994;26.260;2023-05-10T00:52:03;13.80;;;9.75;;
45208;SDS011;30951;43.994;26.260;2023-05-10T00:54:28;14.02;;;9.80;;
45208;SDS011;30951;43.994;26.260;2023-05-10T00:56:54;15.63;;;9.40;;
45208;SDS011;30951;43.994;26.260;2023-05-10T00:59:19;14.13;;;9.35;;
45208;SDS011;30951;43.994;26.260;2023-05-10T01:01:46;13.07;;;8.90;;
45208;SDS011;30951;43.994;26.260;2023-05-10T01:04:12;13.98;;;9.75;;
45208;SDS011;30951;43.994;26.260;2023-05-10T01:06:39;17.58;;;10.38;;
45208;SDS011;30951;43.994;26.260;2023-05-10T01:09:05;16.40;;;10.50;;
45208;SDS011;30951;43.994;26.260;2023-05-10T01:11:32;15.98;;;11.25;;
45208;SDS011;30951;43.994;26.260;2023-05-10T01:14:01;11.43;;;7.40;;
45208;SDS011;30951;43.994;26.260;2023-05-10T01:16:27;9.98;;;7.53;;
45208;SDS011;30951;43.994;26.260;2023-05-10T01:18:55;12.52;;;8.38;;
45208;SDS011;30951;43.994;26.260;2023-05-10T01:43:48;30.38;;;9.90;;
45208;SDS011;30951;43.994;26.260;2023-05-10T01:46:37;33.78;;;9.27;;
45208;SDS011;30951;43.994;26.260;2023-05-10T01:49:07;28.95;;;10.13;;
45208;SDS011;30951;43.994;26.260;2023-05-10T01:51:47;21.10;;;10.50;;
45208;SDS011;30951;43.994;26.260;2023-05-10T01:54:14;18.33;;;10.65;;
45208;SDS011;30951;43.994;26.260;2023-05-10T01:56:43;17.52;;;10.65;;
45208;SDS011;30951;43.994;26.260;2023-05-10T01:59:11;22.83;;;11.20;;
45208;SDS011;30951;43.994;26.260;2023-05-10T02:01:39;25.92;;;10.60;;
45208;SDS011;30951;43.994;26.260;2023-05-10T02:04:06;32.00;;;11.40;;
45208;SDS011;30951;43.994;26.260;2023-05-10T02:06:32;21.65;;;11.15;;
45208;SDS011;30951;43.994;26.260;2023-05-10T02:08:58;24.33;;;11.68;;
45208;SDS011;30951;43.994;26.260;2023-05-10T02:11:25;22.50;;;10.73;;
45208;SDS011;30951;43.994;26.260;2023-05-10T02:13:52;29.38;;;11.10;;
45208;SDS011;30951;43.994;26.260;2023-05-10T02:16:19;28.38;;;11.35;;
45208;SDS011;30951;43.994;26.260;2023-05-10T02:18:49;19.55;;;11.68;;
45208;SDS011;30951;43.994;26.260;2023-05-10T02:21:15;27.25;;;10.95;;
45208;SDS011;30951;43.994;26.260;2023-05-10T02:23:42;29.48;;;12.63;;
45208;SDS011;30951;43.994;26.260;2023-05-10T02:26:08;29.23;;;12.70;;
45208;SDS011;30951;43.994;26.260;2023-05-10T02:28:34;24.02;;;11.35;;
45208;SDS011;30951;43.994;26.260;2023-05-10T02:31:00;25.92;;;11.98;;
45208;SDS011;30951;43.994;26.260;2023-05-10T02:33:26;28.55;;;11.57;;
45208;SDS011;30951;43.994;26.260;2023-05-10T02:35:52;28.00;;;11.60;;
45208;SDS011;30951;43.994;26.260;2023-05-10T02:38:18;24.23;;;11.63;;
45208;SDS011;30951;43.994;26.260;2023-05-10T02:40:46;31.92;;;10.50;;
45208;SDS011;30951;43.994;26.260;2023-05-10T02:43:12;21.27;;;11.23;;
45208;SDS011;30951;43.994;26.260;2023-05-10T02:45:39;24.75;;;11.35;;
45208;SDS011;30951;43.994;26.260;2023-05-10T02:48:05;33.63;;;12.35;;
45208;SDS011;30951;43.994;26.260;2023-05-10T02:50:32;25.23;;;11.27;;
45208;SDS011;30951;43.994;26.260;2023-05-10T02:53:02;55.13;;;12.27;;
45208;SDS011;30951;43.994;26.260;2023-05-10T02:55:32;25.77;;;11.45;;
45208;SDS011;30951;43.994;26.260;2023-05-10T02:58:02;39.58;;;12.25;;
45208;SDS011;30951;43.994;26.260;2023-05-10T03:00:28;43.75;;;12.50;;
45208;SDS011;30951;43.994;26.260;2023-05-10T03:02:54;49.47;;;16.73;;
45208;SDS011;30951;43.994;26.260;2023-05-10T03:05:19;47.22;;;16.10;;
45208;SDS011;30951;43.994;26.260;2023-05-10T03:07:45;36.28;;;12.98;;
45208;SDS011;30951;43.994;26.260;2023-05-10T03:10:11;69.00;;;16.27;;
45208;SDS011;30951;43.994;26.260;2023-05-10T03:18:51;63.97;;;15.40;;
45208;SDS011;30951;43.994;26.260;2023-05-10T03:21:20;86.72;;;18.27;;
45208;SDS011;30951;43.994;26.260;2023-05-10T03:23:50;69.80;;;15.75;;
45208;SDS011;30951;43.994;26.260;2023-05-10T03:26:18;100.45;;;19.05;;
45208;SDS011;30951;43.994;26.260;2023-05-10T03:28:47;80.85;;;20.70;;
45208;SDS011;30951;43.994;26.260;2023-05-10T03:31:13;85.15;;;20.08;;
45208;SDS011;30951;43.994;26.260;2023-05-10T03:33:48;63.00;;;20.70;;
45208;SDS011;30951;43.994;26.260;2023-05-10T03:36:14;59.15;;;18.75;;
45208;SDS011;30951;43.994;26.260;2023-05-10T03:38:40;78.38;;;19.35;;
45208;SDS011;30951;43.994;26.260;2023-05-10T03:41:05;49.15;;;17.83;;
45208;SDS011;30951;43.994;26.260;2023-05-10T03:43:31;46.65;;;16.80;;
45208;SDS011;30951;43.994;26.260;2023-05-10T03:45:56;66.63;;;19.98;;
45208;SDS011;30951;43.994;26.260;2023-05-10T03:48:22;51.80;;;16.73;;
45208;SDS011;30951;43.994;26.260;2023-05-10T03:50:47;59.67;;;17.80;;
45208;SDS011;30951;43.994;26.260;2023-05-10T03:53:14;48.90;;;19.13;;
45208;SDS011;30951;43.994;26.260;2023-05-10T03:55:40;38.78;;;19.25;;
45208;SDS011;30951;43.994;26.260;2023-05-10T03:58:05;37.08;;;16.17;;
45208;SDS011;30951;43.994;26.260;2023-05-10T04:00:31;49.63;;;16.20;;
45208;SDS011;30951;43.994;26.260;2023-05-10T04:02:57;44.10;;;16.45;;
45208;SDS011;30951;43.994;26.260;2023-05-10T04:05:23;30.10;;;16.88;;
45208;SDS011;30951;43.994;26.260;2023-05-10T04:07:48;30.10;;;14.40;;
45208;SDS011;30951;43.994;26.260;2023-05-10T04:10:14;22.20;;;12.88;;
45208;SDS011;30951;43.994;26.260;2023-05-10T04:12:41;23.90;;;11.98;;
45208;SDS011;30951;43.994;26.260;2023-05-10T04:15:06;26.95;;;12.70;;
45208;SDS011;30951;43.994;26.260;2023-05-10T04:17:32;27.10;;;14.13;;
45208;SDS011;30951;43.994;26.260;2023-05-10T04:19:58;25.17;;;12.05;;
45208;SDS011;30951;43.994;26.260;2023-05-10T04:22:24;37.30;;;13.38;;
45208;SDS011;30951;43.994;26.260;2023-05-10T04:24:49;26.30;;;13.00;;
45208;SDS011;30951;43.994;26.260;2023-05-10T04:27:15;32.03;;;13.70;;
45208;SDS011;30951;43.994;26.260;2023-05-10T04:29:40;26.23;;;13.00;;
45208;SDS011;30951;43.994;26.260;2023-05-10T04:32:06;30.15;;;13.45;;
45208;SDS011;30951;43.994;26.260;2023-05-10T04:34:32;23.05;;;13.23;;
45208;SDS011;30951;43.994;26.260;2023-05-10T04:36:59;24.60;;;13.75;;
45208;SDS011;30951;43.994;26.260;2023-05-10T04:39:24;30.52;;;13.80;;
45208;SDS011;30951;43.994;26.260;2023-05-10T04:41:50;27.08;;;13.05;;
45208;SDS011;30951;43.994;26.260;2023-05-10T04:44:15;28.98;;;14.18;;
45208;SDS011;30951;43.994;26.260;2023-05-10T04:46:41;35.17;;;15.05;;
45208;SDS011;30951;43.994;26.260;2023-05-10T04:49:06;38.42;;;13.52;;
45208;SDS011;30951;43.994;26.260;2023-05-10T04:51:32;29.05;;;13.60;;
45208;SDS011;30951;43.994;26.260;2023-05-10T04:53:57;26.25;;;13.25;;
45208;SDS011;30951;43.994;26.260;2023-05-10T04:56:23;27.35;;;13.75;;
45208;SDS011;30951;43.994;26.260;2023-05-10T04:58:48;31.63;;;14.38;;
45208;SDS011;30951;43.994;26.260;2023-05-10T05:01:14;34.30;;;15.57;;
45208;SDS011;30951;43.994;26.260;2023-05-10T05:03:40;35.83;;;16.23;;
45208;SDS011;30951;43.994;26.260;2023-05-10T05:06:05;27.40;;;15.23;;
45208;SDS011;30951;43.994;26.260;2023-05-10T05:08:31;37.90;;;16.17;;
45208;SDS011;30951;43.994;26.260;2023-05-10T05:10:56;39.13;;;15.60;;
45208;SDS011;30951;43.994;26.260;2023-05-10T05:13:22;39.75;;;17.25;;
45208;SDS011;30951;43.994;26.260;2023-05-10T05:15:47;36.05;;;17.08;;
45208;SDS011;30951;43.994;26.260;2023-05-10T05:18:13;43.95;;;18.30;;
45208;SDS011;30951;43.994;26.260;2023-05-10T05:20:38;46.95;;;19.70;;
45208;SDS011;30951;43.994;26.260;2023-05-10T05:23:04;34.78;;;16.50;;
45208;SDS011;30951;43.994;26.260;2023-05-10T05:25:29;39.33;;;18.23;;
45208;SDS011;30951;43.994;26.260;2023-05-10T05:27:55;40.38;;;18.05;;
45208;SDS011;30951;43.994;26.260;2023-05-10T05:30:20;40.13;;;17.95;;
45208;SDS011;30951;43.994;26.260;2023-05-10T05:32:46;43.13;;;18.40;;
45208;SDS011;30951;43.994;26.260;2023-05-10T05:35:14;36.85;;;18.13;;
45208;SDS011;30951;43.994;26.260;2023-05-10T05:37:40;34.40;;;17.10;;
45208;SDS011;30951;43.994;26.260;2023-05-10T05:40:05;41.47;;;18.95;;
45208;SDS011;30951;43.994;26.260;2023-05-10T05:42:31;36.05;;;18.55;;
45208;SDS011;30951;43.994;26.260;2023-05-10T05:44:57;34.13;;;17.83;;
45208;SDS011;30951;43.994;26.260;2023-05-10T05:47:23;33.85;;;18.58;;
45208;SDS011;30951;43.994;26.260;2023-05-10T05:49:48;36.90;;;19.30;;
45208;SDS011;30951;43.994;26.260;2023-05-10T05:52:14;37.60;;;19.08;;
45208;SDS011;30951;43.994;26.260;2023-05-10T05:54:39;33.35;;;20.08;;
45208;SDS011;30951;43.994;26.260;2023-05-10T05:57:05;34.75;;;22.00;;
45208;SDS011;30951;43.994;26.260;2023-05-10T05:59:30;34.95;;;20.58;;
45208;SDS011;30951;43.994;26.260;2023-05-10T06:01:55;36.42;;;21.42;;
45208;SDS011;30951;43.994;26.260;2023-05-10T06:04:21;35.35;;;20.05;;
45208;SDS011;30951;43.994;26.260;2023-05-10T06:06:46;26.73;;;17.35;;
45208;SDS011;30951;43.994;26.260;2023-05-10T06:09:12;28.85;;;18.13;;
45208;SDS011;30951;43.994;26.260;2023-05-10T06:11:37;29.25;;;18.77;;
45208;SDS011;30951;43.994;26.260;2023-05-10T06:14:03;27.85;;;18.10;;
45208;SDS011;30951;43.994;26.260;2023-05-10T06:16:30;26.02;;;16.90;;
45208;SDS011;30951;43.994;26.260;2023-05-10T06:18:56;27.30;;;18.60;;
45208;SDS011;30951;43.994;26.260;2023-05-10T06:21:22;25.52;;;18.52;;
45208;SDS011;30951;43.994;26.260;2023-05-10T06:23:47;19.88;;;15.70;;
45208;SDS011;30951;43.994;26.260;2023-05-10T06:26:13;20.88;;;14.05;;
45208;SDS011;30951;43.994;26.260;2023-05-10T06:28:39;18.88;;;13.00;;
45208;SDS011;30951;43.994;26.260;2023-05-10T06:31:05;16.67;;;12.68;;
45208;SDS011;30951;43.994;26.260;2023-05-10T06:33:31;16.58;;;11.00;;
45208;SDS011;30951;43.994;26.260;2023-05-10T06:35:57;12.85;;;9.63;;
45208;SDS011;30951;43.994;26.260;2023-05-10T06:38:22;12.77;;;9.80;;
45208;SDS011;30951;43.994;26.260;2023-05-10T06:40:48;12.50;;;9.75;;
45208;SDS011;30951;43.994;26.260;2023-05-10T06:43:13;13.70;;;9.45;;
45208;SDS011;30951;43.994;26.260;2023-05-10T06:45:39;14.25;;;10.90;;
45208;SDS011;30951;43.994;26.260;2023-05-10T06:48:04;11.10;;;9.10;;
45208;SDS011;30951;43.994;26.260;2023-05-10T06:50:30;10.27;;;8.15;;
45208;SDS011;30951;43.994;26.260;2023-05-10T06:52:56;12.18;;;8.57;;
45208;SDS011;30951;43.994;26.260;2023-05-10T06:55:21;9.32;;;7.85;;
45208;SDS011;30951;43.994;26.260;2023-05-10T06:57:47;9.35;;;7.95;;
45208;SDS011;30951;43.994;26.260;2023-05-10T07:00:13;9.32;;;7.25;;
45208;SDS011;30951;43.994;26.260;2023-05-10T07:02:39;12.20;;;7.72;;
45208;SDS011;30951;43.994;26.260;2023-05-10T07:05:04;8.40;;;6.78;;
45208;SDS011;30951;43.994;26.260;2023-05-10T07:07:30;9.02;;;5.80;;
45208;SDS011;30951;43.994;26.260;2023-05-10T07:09:56;7.75;;;6.25;;
45208;SDS011;30951;43.994;26.260;2023-05-10T07:12:22;11.00;;;5.80;;
45208;SDS011;30951;43.994;26.260;2023-05-10T07:14:48;9.13;;;5.28;;
45208;SDS011;30951;43.994;26.260;2023-05-10T07:17:14;7.68;;;6.05;;
45208;SDS011;30951;43.994;26.260;2023-05-10T07:19:40;5.18;;;4.68;;
45208;SDS011;30951;43.994;26.260;2023-05-10T07:22:05;5.85;;;4.40;;
45208;SDS011;30951;43.994;26.260;2023-05-10T07:24:31;6.22;;;4.18;;
45208;SDS011;30951;43.994;26.260;2023-05-10T07:26:58;5.68;;;3.95;;
45208;SDS011;30951;43.994;26.260;2023-05-10T07:29:23;4.78;;;4.30;;
45208;SDS011;30951;43.994;26.260;2023-05-10T07:31:49;3.30;;;2.95;;
45208;SDS011;30951;43.994;26.260;2023-05-10T07:34:14;7.03;;;4.30;;
45208;SDS011;30951;43.994;26.260;2023-05-10T07:36:39;3.95;;;3.20;;
45208;SDS011;30951;43.994;26.260;2023-05-10T07:39:05;4.95;;;2.55;;
45208;SDS011;30951;43.994;26.260;2023-05-10T07:41:30;4.07;;;2.65;;
45208;SDS011;30951;43.994;26.260;2023-05-10T07:43:56;4.30;;;3.25;;
45208;SDS011;30951;43.994;26.260;2023-05-10T07:46:21;4.55;;;3.00;;
45208;SDS011;30951;43.994;26.260;2023-05-10T07:48:47;4.47;;;3.10;;
45208;SDS011;30951;43.994;26.260;2023-05-10T07:51:12;5.03;;;3.00;;
45208;SDS011;30951;43.994;26.260;2023-05-10T07:53:38;2.58;;;2.20;;
45208;SDS011;30951;43.994;26.260;2023-05-10T07:56:20;2.10;;;1.90;;
45208;SDS011;30951;43.994;26.260;2023-05-10T07:58:47;3.80;;;2.45;;
45208;SDS011;30951;43.994;26.260;2023-05-10T08:01:13;2.95;;;2.63;;
45208;SDS011;30951;43.994;26.260;2023-05-10T08:03:38;3.20;;;2.05;;
45208;SDS011;30951;43.994;26.260;2023-05-10T08:06:03;3.08;;;2.50;;
45208;SDS011;30951;43.994;26.260;2023-05-10T08:08:29;2.35;;;2.08;;
45208;SDS011;30951;43.994;26.260;2023-05-10T08:10:55;2.35;;;1.80;;
45208;SDS011;30951;43.994;26.260;2023-05-10T08:13:20;2.00;;;1.70;;
45208;SDS011;30951;43.994;26.260;2023-05-10T08:15:46;2.30;;;1.83;;
45208;SDS011;30951;43.994;26.260;2023-05-10T08:18:12;2.75;;;1.95;;
45208;SDS011;30951;43.994;26.260;2023-05-10T08:20:37;3.00;;;1.95;;
45208;SDS011;30951;43.994;26.260;2023-05-10T08:23:03;7.82;;;3.15;;
45208;SDS011;30951;43.994;26.260;2023-05-10T08:25:28;2.33;;;1.50;;
45208;SDS011;30951;43.994;26.260;2023-05-10T08:27:54;1.80;;;1.70;;
45208;SDS011;30951;43.994;26.260;2023-05-10T08:30:19;6.28;;;1.70;;
45208;SDS011;30951;43.994;26.260;2023-05-10T08:32:45;3.45;;;1.80;;
45208;SDS011;30951;43.994;26.260;2023-05-10T08:35:10;7.30;;;2.50;;
45208;SDS011;30951;43.994;26.260;2023-05-10T08:37:36;6.43;;;1.80;;
45208;SDS011;30951;43.994;26.260;2023-05-10T08:40:01;3.15;;;1.88;;
45208;SDS011;30951;43.994;26.260;2023-05-10T08:42:28;3.85;;;2.05;;
45208;SDS011;30951;43.994;26.260;2023-05-10T08:44:55;2.08;;;1.42;;
45208;SDS011;30951;43.994;26.260;2023-05-10T08:47:22;1.38;;;1.27;;
45208;SDS011;30951;43.994;26.260;2023-05-10T08:49:49;1.48;;;1.38;;
45208;SDS011;30951;43.994;26.260;2023-05-10T08:52:16;2.47;;;1.75;;
45208;SDS011;30951;43.994;26.260;2023-05-10T08:54:42;4.80;;;1.35;;
45208;SDS011;30951;43.994;26.260;2023-05-10T08:57:09;4.72;;;1.40;;
45208;SDS011;30951;43.994;26.260;2023-05-10T08:59:35;1.80;;;1.30;;
45208;SDS011;30951;43.994;26.260;2023-05-10T09:02:03;2.15;;;1.63;;
45208;SDS011;30951;43.994;26.260;2023-05-10T09:04:29;5.95;;;2.05;;
45208;SDS011;30951;43.994;26.260;2023-05-10T09:06:56;4.10;;;1.38;;
45208;SDS011;30951;43.994;26.260;2023-05-10T09:09:21;1.80;;;1.30;;
45208;SDS011;30951;43.994;26.260;2023-05-10T09:11:49;1.88;;;1.20;;
45208;SDS011;30951;43.994;26.260;2023-05-10T09:14:14;3.00;;;1.13;;
45208;SDS011;30951;43.994;26.260;2023-05-10T09:16:40;3.33;;;1.63;;
45208;SDS011;30951;43.994;26.260;2023-05-10T09:19:06;1.63;;;1.15;;
45208;SDS011;30951;43.994;26.260;2023-05-10T09:21:34;2.80;;;1.27;;
45208;SDS011;30951;43.994;26.260;2023-05-10T09:24:03;1.30;;;1.10;;
45208;SDS011;30951;43.994;26.260;2023-05-10T09:26:30;1.55;;;1.05;;
45208;SDS011;30951;43.994;26.260;2023-05-10T09:28:59;1.08;;;0.98;;
45208;SDS011;30951;43.994;26.260;2023-05-10T09:31:42;7.35;;;4.30;;
45208;SDS011;30951;43.994;26.260;2023-05-10T09:34:16;2.20;;;1.20;;
45208;SDS011;30951;43.994;26.260;2023-05-10T09:36:56;3.60;;;1.52;;
45208;SDS011;30951;43.994;26.260;2023-05-10T09:39:32;1.10;;;1.00;;
45208;SDS011;30951;43.994;26.260;2023-05-10T09:41:59;1.23;;;1.13;;
45208;SDS011;30951;43.994;26.260;2023-05-10T09:44:26;3.00;;;0.80;;
45208;SDS011;30951;43.994;26.260;2023-05-10T09:46:52;1.40;;;1.20;;
45208;SDS011;30951;43.994;26.260;2023-05-10T09:49:18;1.48;;;1.10;;
45208;SDS011;30951;43.994;26.260;2023-05-10T09:51:46;3.30;;;1.15;;
45208;SDS011;30951;43.994;26.260;2023-05-10T09:54:16;1.25;;;1.15;;
45208;SDS011;30951;43.994;26.260;2023-05-10T09:56:41;3.03;;;1.10;;
45208;SDS011;30951;43.994;26.260;2023-05-10T09:59:08;1.65;;;1.10;;
45208;SDS011;30951;43.994;26.260;2023-05-10T10:01:36;1.20;;;1.05;;
45208;SDS011;30951;43.994;26.260;2023-05-10T10:04:02;1.35;;;1.23;;
45208;SDS011;30951;43.994;26.260;2023-05-10T10:06:37;1.75;;;1.15;;
45208;SDS011;30951;43.994;26.260;2023-05-10T10:09:04;1.10;;;1.00;;
45208;SDS011;30951;43.994;26.260;2023-05-10T10:11:36;1.88;;;1.02;;
45208;SDS011;30951;43.994;26.260;2023-05-10T10:14:02;4.93;;;1.20;;
45208;SDS011;30951;43.994;26.260;2023-05-10T10:16:31;1.67;;;1.05;;
45208;SDS011;30951;43.994;26.260;2023-05-10T10:18:57;1.52;;;1.00;;
45208;SDS011;30951;43.994;26.260;2023-05-10T10:21:23;0.90;;;0.85;;
45208;SDS011;30951;43.994;26.260;2023-05-10T10:23:49;2.55;;;0.93;;
45208;SDS011;30951;43.994;26.260;2023-05-10T10:26:15;1.15;;;0.80;;
45208;SDS011;30951;43.994;26.260;2023-05-10T10:31:45;1.23;;;0.90;;
45208;SDS011;30951;43.994;26.260;2023-05-10T10:34:27;2.47;;;1.20;;
45208;SDS011;30951;43.994;26.260;2023-05-10T10:36:54;1.85;;;1.10;;
45208;SDS011;30951;43.994;26.260;2023-05-10T10:39:21;1.20;;;1.00;;
45208;SDS011;30951;43.994;26.260;2023-05-10T10:41:50;0.85;;;0.80;;
45208;SDS011;30951;43.994;26.260;2023-05-10T10:47:10;1.05;;;0.77;;
45208;SDS011;30951;43.994;26.260;2023-05-10T10:57:24;1.42;;;0.90;;
45208;SDS011;30951;43.994;26.260;2023-05-10T10:59:51;3.35;;;0.73;;
45208;SDS011;30951;43.994;26.260;2023-05-10T11:08:00;2.03;;;1.00;;
45208;SDS011;30951;43.994;26.260;2023-05-10T11:10:32;1.92;;;1.30;;
45208;SDS011;30951;43.994;26.260;2023-05-10T11:13:05;1.48;;;0.88;;
45208;SDS011;30951;43.994;26.260;2023-05-10T11:15:36;0.93;;;0.80;;
45208;SDS011;30951;43.994;26.260;2023-05-10T11:18:21;0.98;;;0.90;;
45208;SDS011;30951;43.994;26.260;2023-05-10T11:20:50;1.15;;;0.80;;
45208;SDS011;30951;43.994;26.260;2023-05-10T11:23:21;0.70;;;0.70;;
45208;SDS011;30951;43.994;26.260;2023-05-10T11:25:47;1.67;;;0.88;;
45208;SDS011;30951;43.994;26.260;2023-05-10T11:28:14;0.63;;;0.63;;
45208;SDS011;30951;43.994;26.260;2023-05-10T11:30:40;1.45;;;0.88;;
45208;SDS011;30951;43.994;26.260;2023-05-10T11:33:07;2.05;;;0.80;;
45208;SDS011;30951;43.994;26.260;2023-05-10T11:35:37;2.17;;;0.80;;
45208;SDS011;30951;43.994;26.260;2023-05-10T11:38:07;0.85;;;0.75;;
45208;SDS011;30951;43.994;26.260;2023-05-10T11:40:33;0.70;;;0.70;;
45208;SDS011;30951;43.994;26.260;2023-05-10T11:42:59;1.60;;;0.88;;
45208;SDS011;30951;43.994;26.260;2023-05-10T11:45:25;0.55;;;0.50;;
45208;SDS011;30951;43.994;26.260;2023-05-10T11:47:51;1.23;;;1.05;;
45208;SDS011;30951;43.994;26.260;2023-05-10T11:50:17;0.82;;;0.70;;
45208;SDS011;30951;43.994;26.260;2023-05-10T11:52:42;1.08;;;0.70;;
45208;SDS011;30951;43.994;26.260;2023-05-10T11:55:08;1.95;;;0.90;;
45208;SDS011;30951;43.994;26.260;2023-05-10T11:57:34;0.90;;;0.90;;
45208;SDS011;30951;43.994;26.260;2023-05-10T12:00:00;5.55;;;0.90;;
45208;SDS011;30951;43.994;26.260;2023-05-10T12:02:28;1.98;;;1.00;;
45208;SDS011;30951;43.994;26.260;2023-05-10T12:04:54;1.15;;;0.82;;
45208;SDS011;30951;43.994;26.260;2023-05-10T12:07:20;1.00;;;0.88;;
45208;SDS011;30951;43.994;26.260;2023-05-10T12:12:43;1.02;;;0.90;;
45208;SDS011;30951;43.994;26.260;2023-05-10T12:15:19;0.95;;;0.85;;
45208;SDS011;30951;43.994;26.260;2023-05-10T12:17:46;1.05;;;0.77;;
45208;SDS011;30951;43.994;26.260;2023-05-10T12:20:16;0.65;;;0.60;;
45208;SDS011;30951;43.994;26.260;2023-05-10T12:22:46;1.17;;;1.07;;
45208;SDS011;30951;43.994;26.260;2023-05-10T12:25:22;0.70;;;0.70;;
45208;SDS011;30951;43.994;26.260;2023-05-10T12:27:52;2.25;;;0.80;;
45208;SDS011;30951;43.994;26.260;2023-05-10T12:30:22;4.07;;;0.90;;
45208;SDS011;30951;43.994;26.260;2023-05-10T12:32:48;2.03;;;0.75;;
45208;SDS011;30951;43.994;26.260;2023-05-10T12:35:14;0.65;;;0.65;;
45208;SDS011;30951;43.994;26.260;2023-05-10T12:37:41;1.05;;;0.85;;
45208;SDS011;30951;43.994;26.260;2023-05-10T12:40:08;0.75;;;0.73;;
45208;SDS011;30951;43.994;26.260;2023-05-10T12:42:36;1.35;;;0.77;;
45208;SDS011;30951;43.994;26.260;2023-05-10T12:45:02;0.60;;;0.60;;
45208;SDS011;30951;43.994;26.260;2023-05-10T12:47:28;0.70;;;0.70;;
45208;SDS011;30951;43.994;26.260;2023-05-10T12:49:54;0.70;;;0.60;;
45208;SDS011;30951;43.994;26.260;2023-05-10T12:52:20;5.70;;;1.27;;
45208;SDS011;30951;43.994;26.260;2023-05-10T12:54:45;1.05;;;0.80;;
45208;SDS011;30951;43.994;26.260;2023-05-10T12:57:12;0.95;;;0.85;;
45208;SDS011;30951;43.994;26.260;2023-05-10T12:59:38;2.50;;;0.70;;
45208;SDS011;30951;43.994;26.260;2023-05-10T13:02:03;2.92;;;1.00;;
45208;SDS011;30951;43.994;26.260;2023-05-10T13:04:29;1.08;;;0.98;;
45208;SDS011;30951;43.994;26.260;2023-05-10T13:06:54;1.10;;;0.90;;
45208;SDS011;30951;43.994;26.260;2023-05-10T13:09:23;1.20;;;1.10;;
45208;SDS011;30951;43.994;26.260;2023-05-10T13:11:50;2.05;;;1.08;;
45208;SDS011;30951;43.994;26.260;2023-05-10T13:14:16;1.60;;;0.98;;
45208;SDS011;30951;43.994;26.260;2023-05-10T13:16:41;2.80;;;1.15;;
45208;SDS011;30951;43.994;26.260;2023-05-10T13:19:07;1.10;;;0.90;;
45208;SDS011;30951;43.994;26.260;2023-05-10T13:21:32;1.42;;;0.85;;
45208;SDS011;30951;43.994;26.260;2023-05-10T13:23:58;1.33;;;0.80;;
45208;SDS011;30951;43.994;26.260;2023-05-10T13:26:23;0.93;;;0.93;;
45208;SDS011;30951;43.994;26.260;2023-05-10T13:28:50;1.05;;;0.90;;
45208;SDS011;30951;43.994;26.260;2023-05-10T13:31:16;1.52;;;1.00;;
45208;SDS011;30951;43.994;26.260;2023-05-10T13:33:42;0.75;;;0.75;;
45208;SDS011;30951;43.994;26.260;2023-05-10T13:36:07;1.58;;;1.00;;
45208;SDS011;30951;43.994;26.260;2023-05-10T13:38:33;7.78;;;1.02;;
45208;SDS011;30951;43.994;26.260;2023-05-10T13:40:58;1.65;;;1.00;;
45208;SDS011;30951;43.994;26.260;2023-05-10T13:43:24;0.70;;;0.70;;
45208;SDS011;30951;43.994;26.260;2023-05-10T13:45:49;0.82;;;0.80;;
45208;SDS011;30951;43.994;26.260;2023-05-10T13:48:15;1.48;;;0.95;;
45208;SDS011;30951;43.994;26.260;2023-05-10T13:50:41;1.67;;;0.75;;
45208;SDS011;30951;43.994;26.260;2023-05-10T13:53:06;1.20;;;0.70;;
45208;SDS011;30951;43.994;26.260;2023-05-10T13:55:32;1.55;;;0.93;;
45208;SDS011;30951;43.994;26.260;2023-05-10T13:57:57;0.85;;;0.65;;
45208;SDS011;30951;43.994;26.260;2023-05-10T14:00:23;1.13;;;0.70;;
45208;SDS011;30951;43.994;26.260;2023-05-10T14:02:48;0.70;;;0.70;;
45208;SDS011;30951;43.994;26.260;2023-05-10T14:05:14;0.90;;;0.80;;
45208;SDS011;30951;43.994;26.260;2023-05-10T14:07:39;0.82;;;0.63;;
45208;SDS011;30951;43.994;26.260;2023-05-10T14:10:05;1.85;;;1.00;;
45208;SDS011;30951;43.994;26.260;2023-05-10T14:12:31;0.93;;;0.80;;
45208;SDS011;30951;43.994;26.260;2023-05-10T14:14:56;0.80;;;0.77;;
45208;SDS011;30951;43.994;26.260;2023-05-10T14:17:23;0.73;;;0.73;;
45208;SDS011;30951;43.994;26.260;2023-05-10T14:19:48;1.23;;;1.10;;
45208;SDS011;30951;43.994;26.260;2023-05-10T14:22:14;1.38;;;1.10;;
45208;SDS011;30951;43.994;26.260;2023-05-10T14:24:39;1.13;;;1.00;;
45208;SDS011;30951;43.994;26.260;2023-05-10T14:27:05;1.38;;;0.90;;
45208;SDS011;30951;43.994;26.260;2023-05-10T14:29:31;1.98;;;1.20;;
45208;SDS011;30951;43.994;26.260;2023-05-10T14:31:56;1.10;;;1.00;;
45208;SDS011;30951;43.994;26.260;2023-05-10T14:34:22;3.80;;;1.00;;
45208;SDS011;30951;43.994;26.260;2023-05-10T14:36:47;1.45;;;1.35;;
45208;SDS011;30951;43.994;26.260;2023-05-10T14:39:12;1.20;;;0.95;;
45208;SDS011;30951;43.994;26.260;2023-05-10T14:41:38;2.17;;;1.10;;
45208;SDS011;30951;43.994;26.260;2023-05-10T14:44:06;2.15;;;1.20;;
45208;SDS011;30951;43.994;26.260;2023-05-10T14:46:32;1.48;;;0.88;;
45208;SDS011;30951;43.994;26.260;2023-05-10T14:48:57;1.58;;;0.90;;
45208;SDS011;30951;43.994;26.260;2023-05-10T14:51:22;1.70;;;0.90;;
45208;SDS011;30951;43.994;26.260;2023-05-10T14:53:48;1.08;;;0.70;;
45208;SDS011;30951;43.994;26.260;2023-05-10T14:56:14;1.85;;;0.80;;
45208;SDS011;30951;43.994;26.260;2023-05-10T14:58:40;1.05;;;0.70;;
45208;SDS011;30951;43.994;26.260;2023-05-10T15:01:05;1.38;;;1.00;;
45208;SDS011;30951;43.994;26.260;2023-05-10T15:03:31;1.60;;;1.00;;
45208;SDS011;30951;43.994;26.260;2023-05-10T15:05:56;1.83;;;1.10;;
45208;SDS011;30951;43.994;26.260;2023-05-10T15:08:23;1.45;;;0.70;;
45208;SDS011;30951;43.994;26.260;2023-05-10T15:10:49;0.85;;;0.85;;